sensor_id;sensor_type;location;lat;lon;timestamp;temperature;humidity
15969;DHT22;8085;53.472;9.794;2023-02-28T00:01:06;2.40;1.00
15969;DHT22;8085;53.472;9.794;2023-02-28T00:03:32;2.40;1.00
15969;DHT22;8085;53.472;9.794;2023-02-28T00:06:01;2.40;1.00
15969;DHT22;8085;53.472;9.794;2023-02-28T00:08:28;2.40;1.00
15969;DHT22;8085;53.472;9.794;2023-02-28T00:10:55;2.40;1.00
15969;DHT22;8085;53.472;9.794;2023-02-28T00:13:22;2.40;1.00
15969;DHT22;8085;53.472;9.794;2023-02-28T00:16:00;2.40;1.00
15969;DHT22;8085;53.472;9.794;2023-02-28T00:18:27;2.40;1.00
15969;DHT22;8085;53.472;9.794;2023-02-28T00:20:54;2.40;1.00
15969;DHT22;8085;53.472;9.794;2023-02-28T00:23:21;2.30;1.00
15969;DHT22;8085;53.472;9.794;2023-02-28T00:25:48;2.30;1.00
15969;DHT22;8085;53.472;9.794;2023-02-28T00:28:14;2.30;1.00
15969;DHT22;8085;53.472;9.794;2023-02-28T00:30:42;2.30;1.00
15969;DHT22;8085;53.472;9.794;2023-02-28T00:33:10;2.30;1.00
15969;DHT22;8085;53.472;9.794;2023-02-28T00:35:37;2.30;1.00
15969;DHT22;8085;53.472;9.794;2023-02-28T00:38:04;2.30;1.00
15969;DHT22;8085;53.472;9.794;2023-02-28T00:40:31;2.30;1.00
15969;DHT22;8085;53.472;9.794;2023-02-28T00:42:58;2.30;1.00
15969;DHT22;8085;53.472;9.794;2023-02-28T00:45:25;2.20;1.00
15969;DHT22;8085;53.472;9.794;2023-02-28T00:47:52;2.20;1.00
15969;DHT22;8085;53.472;9.794;2023-02-28T00:50:20;2.20;1.00
15969;DHT22;8085;53.472;9.794;2023-02-28T00:52:47;2.20;1.00
15969;DHT22;8085;53.472;9.794;2023-02-28T00:55:15;2.20;1.00
15969;DHT22;8085;53.472;9.794;2023-02-28T00:57:41;2.10;1.00
15969;DHT22;8085;53.472;9.794;2023-02-28T01:00:09;2.10;1.00
15969;DHT22;8085;53.472;9.794;2023-02-28T01:02:36;2.00;1.00
15969;DHT22;8085;53.472;9.794;2023-02-28T01:05:04;2.10;1.00
15969;DHT22;8085;53.472;9.794;2023-02-28T01:07:32;2.00;1.00
15969;DHT22;8085;53.472;9.794;2023-02-28T01:09:59;2.00;1.00
15969;DHT22;8085;53.472;9.794;2023-02-28T01:12:26;2.00;1.00
15969;DHT22;8085;53.472;9.794;2023-02-28T01:14:52;2.00;1.00
15969;DHT22;8085;53.472;9.794;2023-02-28T01:17:19;2.00;1.00
15969;DHT22;8085;53.472;9.794;2023-02-28T01:19:46;1.90;1.00
15969;DHT22;8085;53.472;9.794;2023-02-28T01:22:13;1.90;1.00
15969;DHT22;8085;53.472;9.794;2023-02-28T01:24:41;1.90;1.00
15969;DHT22;8085;53.472;9.794;2023-02-28T01:27:08;1.90;1.00
15969;DHT22;8085;53.472;9.794;2023-02-28T01:29:35;2.00;1.00
15969;DHT22;8085;53.472;9.794;2023-02-28T01:32:02;1.90;1.00
15969;DHT22;8085;53.472;9.794;2023-02-28T01:34:28;1.90;1.00
15969;DHT22;8085;53.472;9.794;2023-02-28T01:36:55;1.90;1.00
15969;DHT22;8085;53.472;9.794;2023-02-28T01:39:24;1.90;1.00
15969;DHT22;8085;53.472;9.794;2023-02-28T01:41:52;1.90;1.00
15969;DHT22;8085;53.472;9.794;2023-02-28T01:44:58;1.90;1.00
15969;DHT22;8085;53.472;9.794;2023-02-28T01:47:27;1.90;1.00
15969;DHT22;8085;53.472;9.794;2023-02-28T01:49:54;1.90;1.00
15969;DHT22;8085;53.472;9.794;2023-02-28T01:52:22;1.90;1.00
15969;DHT22;8085;53.472;9.794;2023-02-28T01:54:54;1.90;1.00
15969;DHT22;8085;53.472;9.794;2023-02-28T01:57:26;1.80;1.00
15969;DHT22;8085;53.472;9.794;2023-02-28T01:59:57;1.80;1.00
15969;DHT22;8085;53.472;9.794;2023-02-28T02:02:25;1.80;1.00
15969;DHT22;8085;53.472;9.794;2023-02-28T02:04:55;1.80;1.00
15969;DHT22;8085;53.472;9.794;2023-02-28T02:07:23;1.80;1.00
15969;DHT22;8085;53.472;9.794;2023-02-28T02:10:00;1.80;1.00
15969;DHT22;8085;53.472;9.794;2023-02-28T02:12:39;1.80;1.00
15969;DHT22;8085;53.472;9.794;2023-02-28T02:15:14;1.70;1.00
15969;DHT22;8085;53.472;9.794;2023-02-28T02:17:45;1.70;1.00
15969;DHT22;8085;53.472;9.794;2023-02-28T02:20:47;1.60;2.50
15969;DHT22;8085;53.472;9.794;2023-02-28T02:23:32;1.60;3.50
15969;DHT22;8085;53.472;9.794;2023-02-28T02:29:14;1.50;5.00
15969;DHT22;8085;53.472;9.794;2023-02-28T02:32:09;1.50;5.20
15969;DHT22;8085;53.472;9.794;2023-02-28T02:34:54;1.40;6.50
15969;DHT22;8085;53.472;9.794;2023-02-28T02:37:29;1.30;14.90
15969;DHT22;8085;53.472;9.794;2023-02-28T02:40:03;1.20;19.80
15969;DHT22;8085;53.472;9.794;2023-02-28T02:42:39;1.10;22.10
15969;DHT22;8085;53.472;9.794;2023-02-28T02:45:11;1.10;23.30
15969;DHT22;8085;53.472;9.794;2023-02-28T02:47:39;1.00;25.20
15969;DHT22;8085;53.472;9.794;2023-02-28T02:50:12;1.00;25.20
15969;DHT22;8085;53.472;9.794;2023-02-28T02:52:44;1.00;26.30
15969;DHT22;8085;53.472;9.794;2023-02-28T02:55:13;0.90;26.90
15969;DHT22;8085;53.472;9.794;2023-02-28T02:57:46;0.80;26.80
15969;DHT22;8085;53.472;9.794;2023-02-28T03:00:16;0.70;26.90
15969;DHT22;8085;53.472;9.794;2023-02-28T03:02:45;0.70;27.20
15969;DHT22;8085;53.472;9.794;2023-02-28T03:05:18;0.60;27.70
15969;DHT22;8085;53.472;9.794;2023-02-28T03:07:46;0.60;27.60
15969;DHT22;8085;53.472;9.794;2023-02-28T03:10:42;0.50;28.40
15969;DHT22;8085;53.472;9.794;2023-02-28T03:16:23;0.30;33.00
15969;DHT22;8085;53.472;9.794;2023-02-28T03:18:57;0.30;36.00
15969;DHT22;8085;53.472;9.794;2023-02-28T03:21:34;0.20;38.00
15969;DHT22;8085;53.472;9.794;2023-02-28T03:24:06;0.20;39.70
15969;DHT22;8085;53.472;9.794;2023-02-28T03:26:39;0.10;40.20
15969;DHT22;8085;53.472;9.794;2023-02-28T03:29:12;0.10;40.70
15969;DHT22;8085;53.472;9.794;2023-02-28T03:31:46;0.00;41.40
15969;DHT22;8085;53.472;9.794;2023-02-28T03:34:19;0.00;42.00
15969;DHT22;8085;53.472;9.794;2023-02-28T03:36:53;-0.10;42.90
15969;DHT22;8085;53.472;9.794;2023-02-28T03:39:23;-0.20;43.90
15969;DHT22;8085;53.472;9.794;2023-02-28T03:41:54;-0.20;45.40
15969;DHT22;8085;53.472;9.794;2023-02-28T03:44:27;-0.20;47.20
15969;DHT22;8085;53.472;9.794;2023-02-28T03:46:58;-0.30;50.20
15969;DHT22;8085;53.472;9.794;2023-02-28T03:49:30;-0.40;52.60
15969;DHT22;8085;53.472;9.794;2023-02-28T03:52:01;-0.40;55.20
15969;DHT22;8085;53.472;9.794;2023-02-28T03:54:31;-0.50;56.60
15969;DHT22;8085;53.472;9.794;2023-02-28T03:57:04;-0.50;57.70
15969;DHT22;8085;53.472;9.794;2023-02-28T03:59:36;-0.50;58.70
15969;DHT22;8085;53.472;9.794;2023-02-28T04:02:03;-0.60;59.70
15969;DHT22;8085;53.472;9.794;2023-02-28T04:04:30;-0.60;61.70
15969;DHT22;8085;53.472;9.794;2023-02-28T04:07:05;-0.60;64.10
15969;DHT22;8085;53.472;9.794;2023-02-28T04:09:33;-0.70;67.80
15969;DHT22;8085;53.472;9.794;2023-02-28T04:11:59;-0.70;69.80
15969;DHT22;8085;53.472;9.794;2023-02-28T04:14:26;-0.70;73.20
15969;DHT22;8085;53.472;9.794;2023-02-28T04:16:53;-0.70;76.50
15969;DHT22;8085;53.472;9.794;2023-02-28T04:19:20;-0.80;78.20
15969;DHT22;8085;53.472;9.794;2023-02-28T04:21:49;-0.80;79.80
15969;DHT22;8085;53.472;9.794;2023-02-28T04:24:21;-0.80;80.50
15969;DHT22;8085;53.472;9.794;2023-02-28T04:26:50;-0.90;81.10
15969;DHT22;8085;53.472;9.794;2023-02-28T04:29:20;-0.90;82.10
15969;DHT22;8085;53.472;9.794;2023-02-28T04:31:47;-0.90;82.90
15969;DHT22;8085;53.472;9.794;2023-02-28T04:34:14;-1.00;84.00
15969;DHT22;8085;53.472;9.794;2023-02-28T04:36:41;-1.00;85.70
15969;DHT22;8085;53.472;9.794;2023-02-28T04:39:08;-1.10;87.30
15969;DHT22;8085;53.472;9.794;2023-02-28T04:41:38;-1.00;87.70
15969;DHT22;8085;53.472;9.794;2023-02-28T04:44:04;-1.10;87.90
15969;DHT22;8085;53.472;9.794;2023-02-28T04:46:31;-1.20;89.00
15969;DHT22;8085;53.472;9.794;2023-02-28T04:48:58;-1.20;90.00
15969;DHT22;8085;53.472;9.794;2023-02-28T04:51:25;-1.20;91.20
15969;DHT22;8085;53.472;9.794;2023-02-28T04:53:52;-1.20;92.30
15969;DHT22;8085;53.472;9.794;2023-02-28T04:56:19;-1.30;93.20
15969;DHT22;8085;53.472;9.794;2023-02-28T04:58:48;-1.20;93.80
15969;DHT22;8085;53.472;9.794;2023-02-28T05:01:21;-1.20;93.90
15969;DHT22;8085;53.472;9.794;2023-02-28T05:03:48;-1.20;93.90
15969;DHT22;8085;53.472;9.794;2023-02-28T05:06:15;-1.20;94.00
15969;DHT22;8085;53.472;9.794;2023-02-28T05:08:43;-1.20;94.60
15969;DHT22;8085;53.472;9.794;2023-02-28T05:11:14;-1.20;94.40
15969;DHT22;8085;53.472;9.794;2023-02-28T05:13:42;-1.20;95.10
15969;DHT22;8085;53.472;9.794;2023-02-28T05:16:10;-1.30;95.80
15969;DHT22;8085;53.472;9.794;2023-02-28T05:18:37;-1.30;95.70
15969;DHT22;8085;53.472;9.794;2023-02-28T05:21:04;-1.30;95.40
15969;DHT22;8085;53.472;9.794;2023-02-28T05:23:31;-1.30;94.90
15969;DHT22;8085;53.472;9.794;2023-02-28T05:25:58;-1.30;94.50
15969;DHT22;8085;53.472;9.794;2023-02-28T05:28:25;-1.40;94.40
15969;DHT22;8085;53.472;9.794;2023-02-28T05:30:52;-1.40;94.90
15969;DHT22;8085;53.472;9.794;2023-02-28T05:33:20;-1.50;95.50
15969;DHT22;8085;53.472;9.794;2023-02-28T05:35:47;-1.50;96.00
15969;DHT22;8085;53.472;9.794;2023-02-28T05:38:14;-1.50;96.90
15969;DHT22;8085;53.472;9.794;2023-02-28T05:40:40;-1.50;97.90
15969;DHT22;8085;53.472;9.794;2023-02-28T05:43:10;-1.60;98.60
15969;DHT22;8085;53.472;9.794;2023-02-28T05:45:37;-1.60;99.10
15969;DHT22;8085;53.472;9.794;2023-02-28T05:48:04;-1.60;99.40
15969;DHT22;8085;53.472;9.794;2023-02-28T05:50:32;-1.60;99.60
15969;DHT22;8085;53.472;9.794;2023-02-28T05:52:59;-1.70;99.30
15969;DHT22;8085;53.472;9.794;2023-02-28T05:55:26;-1.70;99.00
15969;DHT22;8085;53.472;9.794;2023-02-28T05:57:53;-1.70;99.20
15969;DHT22;8085;53.472;9.794;2023-02-28T06:00:20;-1.70;99.60
15969;DHT22;8085;53.472;9.794;2023-02-28T06:02:47;-1.70;99.90
15969;DHT22;8085;53.472;9.794;2023-02-28T06:05:16;-1.70;99.90
15969;DHT22;8085;53.472;9.794;2023-02-28T06:07:44;-1.80;99.90
15969;DHT22;8085;53.472;9.794;2023-02-28T06:10:12;-1.80;99.80
15969;DHT22;8085;53.472;9.794;2023-02-28T06:12:39;-1.80;99.30
15969;DHT22;8085;53.472;9.794;2023-02-28T06:15:09;-1.80;99.40
15969;DHT22;8085;53.472;9.794;2023-02-28T06:17:38;-1.80;99.70
15969;DHT22;8085;53.472;9.794;2023-02-28T06:20:06;-1.90;99.90
15969;DHT22;8085;53.472;9.794;2023-02-28T06:22:34;-1.90;99.90
15969;DHT22;8085;53.472;9.794;2023-02-28T06:25:02;-1.90;99.90
15969;DHT22;8085;53.472;9.794;2023-02-28T06:27:30;-1.90;99.70
15969;DHT22;8085;53.472;9.794;2023-02-28T06:29:57;-1.90;99.90
15969;DHT22;8085;53.472;9.794;2023-02-28T06:32:24;-1.90;99.90
15969;DHT22;8085;53.472;9.794;2023-02-28T06:34:51;-1.90;99.90
15969;DHT22;8085;53.472;9.794;2023-02-28T06:37:18;-1.90;99.90
15969;DHT22;8085;53.472;9.794;2023-02-28T06:39:45;-1.90;99.90
15969;DHT22;8085;53.472;9.794;2023-02-28T06:42:13;-1.90;99.90
15969;DHT22;8085;53.472;9.794;2023-02-28T06:44:40;-1.90;99.90
15969;DHT22;8085;53.472;9.794;2023-02-28T06:47:08;-1.90;99.90
15969;DHT22;8085;53.472;9.794;2023-02-28T06:49:35;-1.90;99.90
15969;DHT22;8085;53.472;9.794;2023-02-28T06:52:04;-2.00;99.90
15969;DHT22;8085;53.472;9.794;2023-02-28T06:54:31;-1.90;99.90
15969;DHT22;8085;53.472;9.794;2023-02-28T06:56:58;-2.00;99.90
15969;DHT22;8085;53.472;9.794;2023-02-28T06:59:26;-1.90;99.90
15969;DHT22;8085;53.472;9.794;2023-02-28T07:01:53;-1.90;99.90
15969;DHT22;8085;53.472;9.794;2023-02-28T07:04:20;-1.90;99.90
15969;DHT22;8085;53.472;9.794;2023-02-28T07:06:47;-1.90;99.90
15969;DHT22;8085;53.472;9.794;2023-02-28T07:09:14;-1.90;99.90
15969;DHT22;8085;53.472;9.794;2023-02-28T07:11:41;-1.80;99.90
15969;DHT22;8085;53.472;9.794;2023-02-28T07:14:09;-1.80;99.90
15969;DHT22;8085;53.472;9.794;2023-02-28T07:16:37;-1.70;99.90
15969;DHT22;8085;53.472;9.794;2023-02-28T07:19:04;-1.70;99.90
15969;DHT22;8085;53.472;9.794;2023-02-28T07:21:31;-1.70;99.90
15969;DHT22;8085;53.472;9.794;2023-02-28T07:23:57;-1.70;99.90
15969;DHT22;8085;53.472;9.794;2023-02-28T07:26:24;-1.70;99.90
15969;DHT22;8085;53.472;9.794;2023-02-28T07:28:51;-1.60;99.90
15969;DHT22;8085;53.472;9.794;2023-02-28T07:31:18;-1.60;99.90
15969;DHT22;8085;53.472;9.794;2023-02-28T07:33:47;-1.60;99.90
15969;DHT22;8085;53.472;9.794;2023-02-28T07:36:15;-1.50;99.90
15969;DHT22;8085;53.472;9.794;2023-02-28T07:38:45;-1.50;99.90
15969;DHT22;8085;53.472;9.794;2023-02-28T07:41:14;-1.50;99.90
15969;DHT22;8085;53.472;9.794;2023-02-28T07:43:40;-1.40;99.90
15969;DHT22;8085;53.472;9.794;2023-02-28T07:46:09;-1.30;99.90
15969;DHT22;8085;53.472;9.794;2023-02-28T07:48:37;-1.20;99.90
15969;DHT22;8085;53.472;9.794;2023-02-28T07:51:05;-1.10;99.90
15969;DHT22;8085;53.472;9.794;2023-02-28T07:53:32;-0.90;99.90
15969;DHT22;8085;53.472;9.794;2023-02-28T07:56:00;-0.90;99.90
15969;DHT22;8085;53.472;9.794;2023-02-28T07:58:28;-0.80;99.90
15969;DHT22;8085;53.472;9.794;2023-02-28T08:00:55;-0.70;99.90
15969;DHT22;8085;53.472;9.794;2023-02-28T08:03:23;-0.60;99.90
15969;DHT22;8085;53.472;9.794;2023-02-28T08:05:50;-0.50;99.90
15969;DHT22;8085;53.472;9.794;2023-02-28T08:08:20;-0.20;62.50
15969;DHT22;8085;53.472;9.794;2023-02-28T08:10:46;0.10;28.80
15969;DHT22;8085;53.472;9.794;2023-02-28T08:13:13;0.20;3.20
15969;DHT22;8085;53.472;9.794;2023-02-28T08:15:41;0.40;1.00
15969;DHT22;8085;53.472;9.794;2023-02-28T08:18:08;0.60;1.00
15969;DHT22;8085;53.472;9.794;2023-02-28T08:20:35;0.70;1.00
15969;DHT22;8085;53.472;9.794;2023-02-28T08:23:02;1.00;1.00
15969;DHT22;8085;53.472;9.794;2023-02-28T08:25:30;1.00;1.00
15969;DHT22;8085;53.472;9.794;2023-02-28T08:27:57;1.00;1.00
15969;DHT22;8085;53.472;9.794;2023-02-28T08:30:23;1.20;1.00
15969;DHT22;8085;53.472;9.794;2023-02-28T08:32:50;1.40;1.00
15969;DHT22;8085;53.472;9.794;2023-02-28T08:35:17;1.50;1.00
15969;DHT22;8085;53.472;9.794;2023-02-28T08:37:44;1.70;1.00
15969;DHT22;8085;53.472;9.794;2023-02-28T08:40:11;1.70;1.00
15969;DHT22;8085;53.472;9.794;2023-02-28T08:42:44;1.70;1.00
15969;DHT22;8085;53.472;9.794;2023-02-28T08:45:12;2.00;1.00
15969;DHT22;8085;53.472;9.794;2023-02-28T08:47:39;2.30;99.90
15969;DHT22;8085;53.472;9.794;2023-02-28T08:50:07;2.40;99.90
15969;DHT22;8085;53.472;9.794;2023-02-28T08:52:34;2.30;99.90
15969;DHT22;8085;53.472;9.794;2023-02-28T08:55:01;2.20;99.90
15969;DHT22;8085;53.472;9.794;2023-02-28T08:57:28;2.20;99.90
15969;DHT22;8085;53.472;9.794;2023-02-28T08:59:56;2.20;99.90
15969;DHT22;8085;53.472;9.794;2023-02-28T09:02:23;2.40;99.90
15969;DHT22;8085;53.472;9.794;2023-02-28T09:04:49;2.50;93.50
15969;DHT22;8085;53.472;9.794;2023-02-28T09:07:16;2.60;1.00
15969;DHT22;8085;53.472;9.794;2023-02-28T09:09:43;2.80;1.00
15969;DHT22;8085;53.472;9.794;2023-02-28T09:12:20;2.90;1.00
15969;DHT22;8085;53.472;9.794;2023-02-28T09:14:47;3.00;1.00
15969;DHT22;8085;53.472;9.794;2023-02-28T09:17:15;3.00;1.00
15969;DHT22;8085;53.472;9.794;2023-02-28T09:19:42;3.00;1.00
15969;DHT22;8085;53.472;9.794;2023-02-28T09:22:09;3.20;99.90
15969;DHT22;8085;53.472;9.794;2023-02-28T09:24:36;3.30;99.90
15969;DHT22;8085;53.472;9.794;2023-02-28T09:27:03;3.40;99.90
15969;DHT22;8085;53.472;9.794;2023-02-28T09:29:31;3.70;1.00
15969;DHT22;8085;53.472;9.794;2023-02-28T09:31:58;3.70;1.00
15969;DHT22;8085;53.472;9.794;2023-02-28T09:34:26;3.70;1.00
15969;DHT22;8085;53.472;9.794;2023-02-28T09:36:53;3.70;1.00
15969;DHT22;8085;53.472;9.794;2023-02-28T09:39:21;3.70;1.00
15969;DHT22;8085;53.472;9.794;2023-02-28T09:41:50;3.60;1.00
15969;DHT22;8085;53.472;9.794;2023-02-28T09:44:22;3.70;1.00
15969;DHT22;8085;53.472;9.794;2023-02-28T09:46:56;4.00;99.90
15969;DHT22;8085;53.472;9.794;2023-02-28T09:49:31;4.20;1.00
15969;DHT22;8085;53.472;9.794;2023-02-28T09:52:03;4.20;1.00
15969;DHT22;8085;53.472;9.794;2023-02-28T09:54:32;4.20;1.00
15969;DHT22;8085;53.472;9.794;2023-02-28T09:57:04;4.40;1.00
15969;DHT22;8085;53.472;9.794;2023-02-28T09:59:41;4.20;1.00
15969;DHT22;8085;53.472;9.794;2023-02-28T10:02:33;4.50;1.00
15969;DHT22;8085;53.472;9.794;2023-02-28T10:05:11;4.30;1.00
15969;DHT22;8085;53.472;9.794;2023-02-28T10:07:50;4.30;1.00
15969;DHT22;8085;53.472;9.794;2023-02-28T10:10:23;4.20;1.00
15969;DHT22;8085;53.472;9.794;2023-02-28T10:12:53;4.40;1.00
15969;DHT22;8085;53.472;9.794;2023-02-28T10:15:23;4.40;1.00
15969;DHT22;8085;53.472;9.794;2023-02-28T10:17:54;4.50;1.00
15969;DHT22;8085;53.472;9.794;2023-02-28T10:20:25;4.40;1.00
15969;DHT22;8085;53.472;9.794;2023-02-28T10:22:58;4.60;1.00
15969;DHT22;8085;53.472;9.794;2023-02-28T10:25:33;4.60;1.00
15969;DHT22;8085;53.472;9.794;2023-02-28T10:28:08;4.60;99.90
15969;DHT22;8085;53.472;9.794;2023-02-28T10:30:38;4.70;99.90
15969;DHT22;8085;53.472;9.794;2023-02-28T10:33:05;4.70;1.00
15969;DHT22;8085;53.472;9.794;2023-02-28T10:35:34;4.70;1.00
15969;DHT22;8085;53.472;9.794;2023-02-28T10:38:04;4.90;1.00
15969;DHT22;8085;53.472;9.794;2023-02-28T10:40:38;4.80;1.00
15969;DHT22;8085;53.472;9.794;2023-02-28T10:43:18;4.90;99.90
15969;DHT22;8085;53.472;9.794;2023-02-28T10:45:54;4.80;1.00
15969;DHT22;8085;53.472;9.794;2023-02-28T10:48:29;4.80;1.00
15969;DHT22;8085;53.472;9.794;2023-02-28T10:50:58;4.90;1.00
15969;DHT22;8085;53.472;9.794;2023-02-28T10:53:32;5.00;1.00
15969;DHT22;8085;53.472;9.794;2023-02-28T10:56:01;5.20;1.00
15969;DHT22;8085;53.472;9.794;2023-02-28T10:58:31;5.10;1.00
15969;DHT22;8085;53.472;9.794;2023-02-28T11:00:59;5.10;1.00
15969;DHT22;8085;53.472;9.794;2023-02-28T11:03:31;5.20;99.90
15969;DHT22;8085;53.472;9.794;2023-02-28T11:06:06;5.30;1.00
15969;DHT22;8085;53.472;9.794;2023-02-28T11:08:34;5.40;99.90
15969;DHT22;8085;53.472;9.794;2023-02-28T11:11:04;5.40;99.90
15969;DHT22;8085;53.472;9.794;2023-02-28T11:13:33;5.30;99.90
15969;DHT22;8085;53.472;9.794;2023-02-28T11:16:02;5.40;99.90
15969;DHT22;8085;53.472;9.794;2023-02-28T11:18:35;5.50;99.90
15969;DHT22;8085;53.472;9.794;2023-02-28T11:21:05;5.50;99.90
15969;DHT22;8085;53.472;9.794;2023-02-28T11:23:34;5.60;99.90
15969;DHT22;8085;53.472;9.794;2023-02-28T11:26:03;5.60;99.90
15969;DHT22;8085;53.472;9.794;2023-02-28T11:28:37;5.70;99.90
15969;DHT22;8085;53.472;9.794;2023-02-28T11:31:14;5.80;99.90
15969;DHT22;8085;53.472;9.794;2023-02-28T11:33:43;5.80;99.90
15969;DHT22;8085;53.472;9.794;2023-02-28T11:36:14;6.00;99.90
15969;DHT22;8085;53.472;9.794;2023-02-28T11:38:41;5.90;99.90
15969;DHT22;8085;53.472;9.794;2023-02-28T11:41:33;6.20;90.50
15969;DHT22;8085;53.472;9.794;2023-02-28T11:44:18;6.60;1.00
15969;DHT22;8085;53.472;9.794;2023-02-28T11:46:50;7.30;1.00
15969;DHT22;8085;53.472;9.794;2023-02-28T11:49:30;7.80;1.00
15969;DHT22;8085;53.472;9.794;2023-02-28T11:52:05;7.70;1.00
15969;DHT22;8085;53.472;9.794;2023-02-28T11:54:51;8.00;1.00
15969;DHT22;8085;53.472;9.794;2023-02-28T11:57:53;8.30;1.00
15969;DHT22;8085;53.472;9.794;2023-02-28T12:00:38;8.20;1.00
15969;DHT22;8085;53.472;9.794;2023-02-28T12:03:16;8.20;1.00
15969;DHT22;8085;53.472;9.794;2023-02-28T12:05:46;8.40;1.00
15969;DHT22;8085;53.472;9.794;2023-02-28T12:08:27;8.00;1.00
15969;DHT22;8085;53.472;9.794;2023-02-28T12:11:07;7.70;1.00
15969;DHT22;8085;53.472;9.794;2023-02-28T12:13:45;7.30;1.00
15969;DHT22;8085;53.472;9.794;2023-02-28T12:19:13;6.80;1.00
15969;DHT22;8085;53.472;9.794;2023-02-28T12:21:57;7.30;1.00
15969;DHT22;8085;53.472;9.794;2023-02-28T12:24:47;7.30;1.00
15969;DHT22;8085;53.472;9.794;2023-02-28T12:27:21;7.60;1.00
15969;DHT22;8085;53.472;9.794;2023-02-28T12:29:51;7.90;1.00
15969;DHT22;8085;53.472;9.794;2023-02-28T12:32:25;8.30;1.00
15969;DHT22;8085;53.472;9.794;2023-02-28T12:34:57;8.20;1.00
15969;DHT22;8085;53.472;9.794;2023-02-28T12:37:29;8.70;1.00
15969;DHT22;8085;53.472;9.794;2023-02-28T12:40:02;8.80;1.00
15969;DHT22;8085;53.472;9.794;2023-02-28T12:42:33;8.50;1.00
15969;DHT22;8085;53.472;9.794;2023-02-28T12:45:06;9.10;1.00
15969;DHT22;8085;53.472;9.794;2023-02-28T12:47:34;8.90;1.00
15969;DHT22;8085;53.472;9.794;2023-02-28T12:50:04;8.90;1.00
15969;DHT22;8085;53.472;9.794;2023-02-28T12:52:35;8.50;1.00
15969;DHT22;8085;53.472;9.794;2023-02-28T12:55:13;8.30;1.00
15969;DHT22;8085;53.472;9.794;2023-02-28T12:57:48;8.00;1.00
15969;DHT22;8085;53.472;9.794;2023-02-28T13:00:18;7.60;1.00
15969;DHT22;8085;53.472;9.794;2023-02-28T13:03:19;7.60;1.00
15969;DHT22;8085;53.472;9.794;2023-02-28T13:06:05;7.90;1.00
15969;DHT22;8085;53.472;9.794;2023-02-28T13:08:59;7.90;1.00
15969;DHT22;8085;53.472;9.794;2023-02-28T13:11:29;8.60;1.00
15969;DHT22;8085;53.472;9.794;2023-02-28T13:13:59;8.70;1.00
15969;DHT22;8085;53.472;9.794;2023-02-28T13:16:26;8.50;1.00
15969;DHT22;8085;53.472;9.794;2023-02-28T13:19:08;8.80;1.00
15969;DHT22;8085;53.472;9.794;2023-02-28T13:21:43;9.20;1.00
15969;DHT22;8085;53.472;9.794;2023-02-28T13:24:11;9.40;1.00
15969;DHT22;8085;53.472;9.794;2023-02-28T13:27:36;9.20;1.00
15969;DHT22;8085;53.472;9.794;2023-02-28T13:33:22;9.40;1.00
15969;DHT22;8085;53.472;9.794;2023-02-28T13:36:07;9.30;1.00
15969;DHT22;8085;53.472;9.794;2023-02-28T13:38:37;9.20;1.00
15969;DHT22;8085;53.472;9.794;2023-02-28T13:44:23;8.60;1.00
15969;DHT22;8085;53.472;9.794;2023-02-28T13:47:24;8.70;1.00
15969;DHT22;8085;53.472;9.794;2023-02-28T13:49:54;8.90;1.00
15969;DHT22;8085;53.472;9.794;2023-02-28T13:52:45;8.70;99.90
15969;DHT22;8085;53.472;9.794;2023-02-28T13:55:29;8.30;99.90
15969;DHT22;8085;53.472;9.794;2023-02-28T13:58:08;8.10;99.90
15969;DHT22;8085;53.472;9.794;2023-02-28T14:00:54;8.10;99.90
15969;DHT22;8085;53.472;9.794;2023-02-28T14:03:37;7.80;99.90
15969;DHT22;8085;53.472;9.794;2023-02-28T14:06:21;8.10;99.90
15969;DHT22;8085;53.472;9.794;2023-02-28T14:08:57;8.00;99.90
15969;DHT22;8085;53.472;9.794;2023-02-28T14:11:30;8.00;99.90
15969;DHT22;8085;53.472;9.794;2023-02-28T14:13:58;7.90;99.90
15969;DHT22;8085;53.472;9.794;2023-02-28T14:16:28;7.90;99.90
15969;DHT22;8085;53.472;9.794;2023-02-28T14:19:03;7.80;99.90
15969;DHT22;8085;53.472;9.794;2023-02-28T14:21:37;7.80;99.90
15969;DHT22;8085;53.472;9.794;2023-02-28T14:27:26;7.50;99.90
15969;DHT22;8085;53.472;9.794;2023-02-28T14:30:24;7.50;99.90
15969;DHT22;8085;53.472;9.794;2023-02-28T14:33:05;7.40;99.90
15969;DHT22;8085;53.472;9.794;2023-02-28T14:35:58;7.30;99.90
15969;DHT22;8085;53.472;9.794;2023-02-28T14:38:30;7.40;99.90
15969;DHT22;8085;53.472;9.794;2023-02-28T14:41:02;7.50;99.90
15969;DHT22;8085;53.472;9.794;2023-02-28T14:43:29;7.40;99.90
15969;DHT22;8085;53.472;9.794;2023-02-28T14:45:58;7.50;99.90
15969;DHT22;8085;53.472;9.794;2023-02-28T14:48:27;7.50;99.90
15969;DHT22;8085;53.472;9.794;2023-02-28T14:50:56;7.40;99.90
15969;DHT22;8085;53.472;9.794;2023-02-28T14:53:27;7.30;99.90
15969;DHT22;8085;53.472;9.794;2023-02-28T14:55:54;7.30;99.90
15969;DHT22;8085;53.472;9.794;2023-02-28T14:58:24;7.20;99.90
15969;DHT22;8085;53.472;9.794;2023-02-28T15:00:52;7.50;99.90
15969;DHT22;8085;53.472;9.794;2023-02-28T15:03:22;7.70;99.90
15969;DHT22;8085;53.472;9.794;2023-02-28T15:05:55;7.70;99.90
15969;DHT22;8085;53.472;9.794;2023-02-28T15:08:23;7.50;99.90
15969;DHT22;8085;53.472;9.794;2023-02-28T15:10:54;7.30;99.90
15969;DHT22;8085;53.472;9.794;2023-02-28T15:13:23;7.30;99.90
15969;DHT22;8085;53.472;9.794;2023-02-28T15:15:54;7.40;99.90
15969;DHT22;8085;53.472;9.794;2023-02-28T15:18:29;7.40;99.90
15969;DHT22;8085;53.472;9.794;2023-02-28T15:21:03;7.30;99.90
15969;DHT22;8085;53.472;9.794;2023-02-28T15:23:31;7.40;99.90
15969;DHT22;8085;53.472;9.794;2023-02-28T15:26:00;7.40;99.90
15969;DHT22;8085;53.472;9.794;2023-02-28T15:28:28;7.40;99.90
15969;DHT22;8085;53.472;9.794;2023-02-28T15:30:57;7.60;99.90
15969;DHT22;8085;53.472;9.794;2023-02-28T15:33:26;7.90;99.90
15969;DHT22;8085;53.472;9.794;2023-02-28T15:36:06;7.90;99.90
15969;DHT22;8085;53.472;9.794;2023-02-28T15:38:35;7.80;99.90
15969;DHT22;8085;53.472;9.794;2023-02-28T15:41:02;7.80;99.90
15969;DHT22;8085;53.472;9.794;2023-02-28T15:43:35;7.70;99.90
15969;DHT22;8085;53.472;9.794;2023-02-28T15:46:04;7.70;99.90
15969;DHT22;8085;53.472;9.794;2023-02-28T15:48:33;7.40;99.90
15969;DHT22;8085;53.472;9.794;2023-02-28T15:51:05;7.20;99.90
15969;DHT22;8085;53.472;9.794;2023-02-28T15:53:35;7.10;99.90
15969;DHT22;8085;53.472;9.794;2023-02-28T15:56:06;7.00;99.90
15969;DHT22;8085;53.472;9.794;2023-02-28T15:58:35;6.80;99.90
15969;DHT22;8085;53.472;9.794;2023-02-28T16:01:16;6.70;99.90
15969;DHT22;8085;53.472;9.794;2023-02-28T16:03:46;6.70;99.90
15969;DHT22;8085;53.472;9.794;2023-02-28T16:06:35;6.60;99.90
15969;DHT22;8085;53.472;9.794;2023-02-28T16:09:04;6.60;99.90
15969;DHT22;8085;53.472;9.794;2023-02-28T16:11:35;6.50;1.00
15969;DHT22;8085;53.472;9.794;2023-02-28T16:14:03;6.40;1.00
15969;DHT22;8085;53.472;9.794;2023-02-28T16:16:31;6.40;1.00
15969;DHT22;8085;53.472;9.794;2023-02-28T16:18:58;6.40;1.00
15969;DHT22;8085;53.472;9.794;2023-02-28T16:21:26;6.30;1.00
15969;DHT22;8085;53.472;9.794;2023-02-28T16:23:53;6.30;1.00
15969;DHT22;8085;53.472;9.794;2023-02-28T16:26:22;6.20;1.00
15969;DHT22;8085;53.472;9.794;2023-02-28T16:28:51;6.10;1.00
15969;DHT22;8085;53.472;9.794;2023-02-28T16:31:18;6.00;1.00
15969;DHT22;8085;53.472;9.794;2023-02-28T16:33:45;5.90;1.00
15969;DHT22;8085;53.472;9.794;2023-02-28T16:36:17;5.90;1.00
15969;DHT22;8085;53.472;9.794;2023-02-28T16:38:45;5.80;1.00
15969;DHT22;8085;53.472;9.794;2023-02-28T16:41:14;5.70;1.00
15969;DHT22;8085;53.472;9.794;2023-02-28T16:43:46;5.60;1.00
15969;DHT22;8085;53.472;9.794;2023-02-28T16:46:14;5.50;1.00
15969;DHT22;8085;53.472;9.794;2023-02-28T16:48:42;5.40;1.00